sensor_id;sensor_type;location;lat;lon;timestamp;pressure;altitude;pressure_sealevel;temperature;humidity
40612;BME280;26317;44.894;20.286;2023-01-29T00:01:59;101440.84;;;1.82;100.00
40612;BME280;26317;44.894;20.286;2023-01-29T00:04:30;101443.53;;;1.89;100.00
40612;BME280;26317;44.894;20.286;2023-01-29T00:07:00;101408.50;;;1.59;100.00
40612;BME280;26317;44.894;20.286;2023-01-29T00:09:30;101420.97;;;1.65;100.00
40612;BME280;26317;44.894;20.286;2023-01-29T00:12:03;101450.28;;;1.92;100.00
40612;BME280;26317;44.894;20.286;2023-01-29T00:14:34;101445.84;;;1.99;100.00
40612;BME280;26317;44.894;20.286;2023-01-29T00:17:05;101451.28;;;1.91;100.00
40612;BME280;26317;44.894;20.286;2023-01-29T00:19:36;101448.50;;;1.99;100.00
40612;BME280;26317;44.894;20.286;2023-01-29T00:22:06;101446.41;;;1.94;100.00
40612;BME280;26317;44.894;20.286;2023-01-29T00:24:36;101420.81;;;1.73;100.00
40612;BME280;26317;44.894;20.286;2023-01-29T00:27:09;101443.72;;;1.88;100.00
40612;BME280;26317;44.894;20.286;2023-01-29T00:29:40;101455.09;;;1.88;100.00
40612;BME280;26317;44.894;20.286;2023-01-29T00:32:31;101457.13;;;1.86;100.00
40612;BME280;26317;44.894;20.286;2023-01-29T00:35:01;101467.28;;;1.82;100.00
40612;BME280;26317;44.894;20.286;2023-01-29T00:37:31;101464.38;;;1.77;100.00
40612;BME280;26317;44.894;20.286;2023-01-29T00:40:01;101471.56;;;1.83;100.00
40612;BME280;26317;44.894;20.286;2023-01-29T00:42:34;101434.56;;;1.62;100.00
40612;BME280;26317;44.894;20.286;2023-01-29T00:45:17;101461.56;;;1.79;100.00
40612;BME280;26317;44.894;20.286;2023-01-29T00:47:47;101471.44;;;1.70;100.00
40612;BME280;26317;44.894;20.286;2023-01-29T00:50:17;101459.84;;;1.71;100.00
40612;BME280;26317;44.894;20.286;2023-01-29T00:52:48;101446.53;;;1.58;100.00
40612;BME280;26317;44.894;20.286;2023-01-29T00:55:21;101472.56;;;1.82;100.00
40612;BME280;26317;44.894;20.286;2023-01-29T00:57:54;101470.53;;;1.84;100.00
40612;BME280;26317;44.894;20.286;2023-01-29T01:00:24;101473.81;;;1.87;100.00
40612;BME280;26317;44.894;20.286;2023-01-29T01:02:54;101476.94;;;1.97;100.00
40612;BME280;26317;44.894;20.286;2023-01-29T01:05:34;101477.59;;;1.99;100.00
40612;BME280;26317;44.894;20.286;2023-01-29T01:08:05;101452.56;;;1.73;100.00
40612;BME280;26317;44.894;20.286;2023-01-29T01:10:59;101476.34;;;1.95;100.00
40612;BME280;26317;44.894;20.286;2023-01-29T01:13:31;101474.09;;;1.92;100.00
40612;BME280;26317;44.894;20.286;2023-01-29T01:16:01;101476.47;;;1.87;100.00
40612;BME280;26317;44.894;20.286;2023-01-29T01:18:31;101483.19;;;1.89;100.00
40612;BME280;26317;44.894;20.286;2023-01-29T01:21:02;101487.06;;;1.87;100.00
40612;BME280;26317;44.894;20.286;2023-01-29T01:23:32;101461.50;;;1.72;100.00
40612;BME280;26317;44.894;20.286;2023-01-29T01:26:07;101486.84;;;1.88;100.00
40612;BME280;26317;44.894;20.286;2023-01-29T01:28:40;101487.63;;;1.82;100.00
40612;BME280;26317;44.894;20.286;2023-01-29T01:31:11;101489.44;;;1.81;100.00
40612;BME280;26317;44.894;20.286;2023-01-29T01:33:41;101482.50;;;1.80;100.00
40612;BME280;26317;44.894;20.286;2023-01-29T01:36:11;101473.56;;;1.81;100.00
40612;BME280;26317;44.894;20.286;2023-01-29T01:38:41;101440.28;;;1.66;100.00
40612;BME280;26317;44.894;20.286;2023-01-29T01:41:16;101481.63;;;1.95;100.00
40612;BME280;26317;44.894;20.286;2023-01-29T01:43:54;101479.94;;;1.87;100.00
40612;BME280;26317;44.894;20.286;2023-01-29T01:46:27;101483.75;;;1.84;100.00
40612;BME280;26317;44.894;20.286;2023-01-29T01:49:04;101450.22;;;1.64;100.00
40612;BME280;26317;44.894;20.286;2023-01-29T01:51:39;101477.47;;;1.85;100.00
40612;BME280;26317;44.894;20.286;2023-01-29T01:54:12;101466.84;;;1.79;100.00
40612;BME280;26317;44.894;20.286;2023-01-29T01:56:46;101484.84;;;1.90;100.00
40612;BME280;26317;44.894;20.286;2023-01-29T01:59:23;101448.41;;;1.64;100.00
40612;BME280;26317;44.894;20.286;2023-01-29T02:01:53;101480.56;;;1.89;100.00
40612;BME280;26317;44.894;20.286;2023-01-29T02:04:25;101478.34;;;1.93;100.00
40612;BME280;26317;44.894;20.286;2023-01-29T02:07:10;101481.25;;;1.98;100.00
40612;BME280;26317;44.894;20.286;2023-01-29T02:09:59;101480.75;;;1.88;100.00
40612;BME280;26317;44.894;20.286;2023-01-29T02:12:31;101483.19;;;1.89;100.00
40612;BME280;26317;44.894;20.286;2023-01-29T02:15:05;101488.91;;;1.93;100.00
40612;BME280;26317;44.894;20.286;2023-01-29T02:17:36;101489.31;;;1.90;100.00
40612;BME280;26317;44.894;20.286;2023-01-29T02:20:12;101493.72;;;1.82;100.00
40612;BME280;26317;44.894;20.286;2023-01-29T02:23:11;101478.69;;;1.83;100.00
40612;BME280;26317;44.894;20.286;2023-01-29T02:26:08;101498.25;;;1.89;100.00
40612;BME280;26317;44.894;20.286;2023-01-29T02:28:50;101496.63;;;1.88;100.00
40612;BME280;26317;44.894;20.286;2023-01-29T02:31:28;101497.06;;;1.91;100.00
40612;BME280;26317;44.894;20.286;2023-01-29T02:34:09;101495.16;;;1.85;100.00
40612;BME280;26317;44.894;20.286;2023-01-29T02:36:44;101496.00;;;1.85;100.00
40612;BME280;26317;44.894;20.286;2023-01-29T02:39:20;101497.44;;;1.88;100.00
40612;BME280;26317;44.894;20.286;2023-01-29T02:41:59;101472.06;;;1.72;100.00
40612;BME280;26317;44.894;20.286;2023-01-29T02:44:37;101493.72;;;1.82;100.00
40612;BME280;26317;44.894;20.286;2023-01-29T02:47:16;101504.78;;;1.93;100.00
40612;BME280;26317;44.894;20.286;2023-01-29T02:49:54;101469.16;;;1.67;100.00
40612;BME280;26317;44.894;20.286;2023-01-29T02:52:34;101459.34;;;1.61;100.00
40612;BME280;26317;44.894;20.286;2023-01-29T02:55:12;101488.06;;;1.85;100.00
40612;BME280;26317;44.894;20.286;2023-01-29T02:57:46;101502.78;;;1.95;100.00
40612;BME280;26317;44.894;20.286;2023-01-29T03:00:23;101501.94;;;1.88;100.00
40612;BME280;26317;44.894;20.286;2023-01-29T03:02:58;101497.25;;;1.90;100.00
40612;BME280;26317;44.894;20.286;2023-01-29T03:05:32;101500.03;;;1.81;100.00
40612;BME280;26317;44.894;20.286;2023-01-29T03:08:11;101497.06;;;1.91;100.00
40612;BME280;26317;44.894;20.286;2023-01-29T03:10:47;101490.97;;;1.91;100.00
40612;BME280;26317;44.894;20.286;2023-01-29T03:13:25;101505.63;;;1.93;100.00
40612;BME280;26317;44.894;20.286;2023-01-29T03:16:03;101503.09;;;1.85;100.00
40612;BME280;26317;44.894;20.286;2023-01-29T03:18:41;101498.25;;;1.89;100.00
40612;BME280;26317;44.894;20.286;2023-01-29T03:21:18;101502.34;;;1.91;100.00
40612;BME280;26317;44.894;20.286;2023-01-29T03:24:02;101504.31;;;1.82;100.00
40612;BME280;26317;44.894;20.286;2023-01-29T03:26:47;101505.19;;;1.90;100.00
40612;BME280;26317;44.894;20.286;2023-01-29T03:29:35;101510.47;;;1.90;100.00
40612;BME280;26317;44.894;20.286;2023-01-29T03:32:24;101504.31;;;1.82;100.00
40612;BME280;26317;44.894;20.286;2023-01-29T03:35:00;101517.66;;;1.74;100.00
40612;BME280;26317;44.894;20.286;2023-01-29T03:37:35;101516.31;;;1.85;100.00
40612;BME280;26317;44.894;20.286;2023-01-29T03:40:10;101517.28;;;1.77;100.00
40612;BME280;26317;44.894;20.286;2023-01-29T03:42:53;101514.75;;;1.69;100.00
40612;BME280;26317;44.894;20.286;2023-01-29T03:45:36;101517.84;;;1.73;100.00
40612;BME280;26317;44.894;20.286;2023-01-29T03:48:16;101475.09;;;1.48;100.00
40612;BME280;26317;44.894;20.286;2023-01-29T03:50:56;101520.19;;;1.82;100.00
40612;BME280;26317;44.894;20.286;2023-01-29T03:53:39;101517.28;;;1.77;100.00
40612;BME280;26317;44.894;20.286;2023-01-29T03:56:21;101519.28;;;1.75;100.00
40612;BME280;26317;44.894;20.286;2023-01-29T03:58:59;101517.72;;;1.81;100.00
40612;BME280;26317;44.894;20.286;2023-01-29T04:01:53;101509.59;;;1.82;100.00
40612;BME280;26317;44.894;20.286;2023-01-29T04:04:30;101519.97;;;1.84;100.00
40612;BME280;26317;44.894;20.286;2023-01-29T04:07:07;101526.16;;;1.91;100.00
40612;BME280;26317;44.894;20.286;2023-01-29T04:09:43;101516.53;;;1.83;100.00
40612;BME280;26317;44.894;20.286;2023-01-29T04:12:20;101530.41;;;1.92;100.00
40612;BME280;26317;44.894;20.286;2023-01-29T04:14:52;101494.59;;;1.68;100.00
40612;BME280;26317;44.894;20.286;2023-01-29T04:17:27;101526.41;;;1.96;100.00
40612;BME280;26317;44.894;20.286;2023-01-29T04:20:13;101526.03;;;1.99;100.00
40612;BME280;26317;44.894;20.286;2023-01-29T04:22:45;101532.75;;;2.02;100.00
40612;BME280;26317;44.894;20.286;2023-01-29T04:25:18;101530.13;;;2.02;100.00
40612;BME280;26317;44.894;20.286;2023-01-29T04:28:02;101531.31;;;1.99;100.00
40612;BME280;26317;44.894;20.286;2023-01-29T04:30:41;101469.94;;;1.61;100.00
40612;BME280;26317;44.894;20.286;2023-01-29T04:33:22;101522.13;;;1.95;100.00
40612;BME280;26317;44.894;20.286;2023-01-29T04:36:17;101528.47;;;2.01;100.00
40612;BME280;26317;44.894;20.286;2023-01-29T04:39:00;101520.53;;;2.01;100.00
40612;BME280;26317;44.894;20.286;2023-01-29T04:41:36;101530.53;;;2.05;100.00
40612;BME280;26317;44.894;20.286;2023-01-29T04:44:15;101500.75;;;1.97;100.00
40612;BME280;26317;44.894;20.286;2023-01-29T04:46:52;101538.66;;;2.25;100.00
40612;BME280;26317;44.894;20.286;2023-01-29T04:49:31;101525.59;;;2.17;100.00
40612;BME280;26317;44.894;20.286;2023-01-29T04:52:08;101534.78;;;2.21;100.00
40612;BME280;26317;44.894;20.286;2023-01-29T04:54:53;101542.72;;;2.21;100.00
40612;BME280;26317;44.894;20.286;2023-01-29T04:57:33;101546.78;;;2.23;100.00
40612;BME280;26317;44.894;20.286;2023-01-29T05:00:07;101553.31;;;2.21;100.00
40612;BME280;26317;44.894;20.286;2023-01-29T05:02:40;101555.13;;;2.20;100.00
40612;BME280;26317;44.894;20.286;2023-01-29T05:05:13;101554.69;;;2.17;100.00
40612;BME280;26317;44.894;20.286;2023-01-29T05:07:48;101555.03;;;2.14;100.00
40612;BME280;26317;44.894;20.286;2023-01-29T05:10:19;101560.34;;;2.14;100.00
40612;BME280;26317;44.894;20.286;2023-01-29T05:12:55;101545.59;;;2.05;100.00
40612;BME280;26317;44.894;20.286;2023-01-29T05:15:30;101562.38;;;2.12;100.00
40612;BME280;26317;44.894;20.286;2023-01-29T05:18:02;101554.44;;;2.12;100.00
40612;BME280;26317;44.894;20.286;2023-01-29T05:20:36;101569.78;;;2.02;100.00
40612;BME280;26317;44.894;20.286;2023-01-29T05:23:14;101566.31;;;2.01;100.00
40612;BME280;26317;44.894;20.286;2023-01-29T05:25:45;101553.31;;;2.00;100.00
40612;BME280;26317;44.894;20.286;2023-01-29T05:28:16;101546.75;;;1.96;100.00
40612;BME280;26317;44.894;20.286;2023-01-29T05:30:45;101570.44;;;2.04;100.00
40612;BME280;26317;44.894;20.286;2023-01-29T05:33:17;101579.00;;;2.06;100.00
40612;BME280;26317;44.894;20.286;2023-01-29T05:35:48;101583.91;;;2.09;100.00
40612;BME280;26317;44.894;20.286;2023-01-29T05:38:22;101581.72;;;2.12;100.00
40612;BME280;26317;44.894;20.286;2023-01-29T05:40:52;101585.53;;;2.10;100.00
40612;BME280;26317;44.894;20.286;2023-01-29T05:43:24;101582.63;;;2.05;100.00
40612;BME280;26317;44.894;20.286;2023-01-29T05:45:55;101585.66;;;2.02;100.00
40612;BME280;26317;44.894;20.286;2023-01-29T05:48:27;101588.31;;;2.02;100.00
40612;BME280;26317;44.894;20.286;2023-01-29T05:50:59;101587.88;;;1.98;100.00
40612;BME280;26317;44.894;20.286;2023-01-29T05:53:32;101588.81;;;1.91;100.00
40612;BME280;26317;44.894;20.286;2023-01-29T05:56:03;101585.22;;;1.98;100.00
40612;BME280;26317;44.894;20.286;2023-01-29T05:58:33;101589.56;;;2.06;100.00
40612;BME280;26317;44.894;20.286;2023-01-29T06:01:11;101587.19;;;2.11;100.00
40612;BME280;26317;44.894;20.286;2023-01-29T06:03:43;101582.28;;;2.08;100.00
40612;BME280;26317;44.894;20.286;2023-01-29T06:06:13;101591.09;;;2.15;100.00
40612;BME280;26317;44.894;20.286;2023-01-29T06:08:46;101592.34;;;2.19;100.00
40612;BME280;26317;44.894;20.286;2023-01-29T06:11:16;101564.25;;;1.97;100.00
40612;BME280;26317;44.894;20.286;2023-01-29T06:13:47;101594.47;;;2.09;100.00
40612;BME280;26317;44.894;20.286;2023-01-29T06:16:17;101598.22;;;2.14;100.00
40612;BME280;26317;44.894;20.286;2023-01-29T06:18:47;101597.78;;;2.11;100.00
40612;BME280;26317;44.894;20.286;2023-01-29T06:21:17;101604.72;;;2.12;100.00
40612;BME280;26317;44.894;20.286;2023-01-29T06:23:51;101597.38;;;2.14;100.00
40612;BME280;26317;44.894;20.286;2023-01-29T06:26:21;101614.03;;;2.08;100.00
40612;BME280;26317;44.894;20.286;2023-01-29T06:28:51;101613.59;;;2.04;100.00
40612;BME280;26317;44.894;20.286;2023-01-29T06:31:21;101614.03;;;2.08;100.00
40612;BME280;26317;44.894;20.286;2023-01-29T06:34:04;101613.22;;;2.07;100.00
40612;BME280;26317;44.894;20.286;2023-01-29T06:36:35;101616.94;;;2.13;100.00
40612;BME280;26317;44.894;20.286;2023-01-29T06:39:11;101628.00;;;2.23;100.00
40612;BME280;26317;44.894;20.286;2023-01-29T06:41:41;101629.28;;;2.27;100.00
40612;BME280;26317;44.894;20.286;2023-01-29T06:44:11;101629.66;;;2.24;100.00
40612;BME280;26317;44.894;20.286;2023-01-29T06:46:42;101632.31;;;2.24;100.00
40612;BME280;26317;44.894;20.286;2023-01-29T06:49:16;101647.88;;;2.34;100.00
40612;BME280;26317;44.894;20.286;2023-01-29T06:51:47;101643.59;;;2.33;100.00
40612;BME280;26317;44.894;20.286;2023-01-29T06:54:19;101630.84;;;2.21;100.00
40612;BME280;26317;44.894;20.286;2023-01-29T06:56:50;101650.06;;;2.30;100.00
40612;BME280;26317;44.894;20.286;2023-01-29T06:59:22;101659.25;;;2.34;100.00
40612;BME280;26317;44.894;20.286;2023-01-29T07:01:52;101656.25;;;2.37;100.00
40612;BME280;26317;44.894;20.286;2023-01-29T07:04:22;101658.09;;;2.37;100.00
40612;BME280;26317;44.894;20.286;2023-01-29T07:06:53;101653.09;;;2.27;100.00
40612;BME280;26317;44.894;20.286;2023-01-29T07:09:25;101664.06;;;2.24;100.00
40612;BME280;26317;44.894;20.286;2023-01-29T07:11:55;101671.25;;;2.30;100.00
40612;BME280;26317;44.894;20.286;2023-01-29T07:14:25;101657.50;;;2.20;100.00
40612;BME280;26317;44.894;20.286;2023-01-29T07:16:56;101661.16;;;2.19;100.00
40612;BME280;26317;44.894;20.286;2023-01-29T07:19:26;101666.19;;;2.14;100.00
40612;BME280;26317;44.894;20.286;2023-01-29T07:21:57;101665.84;;;2.17;100.00
40612;BME280;26317;44.894;20.286;2023-01-29T07:24:31;101660.34;;;2.18;100.00
40612;BME280;26317;44.894;20.286;2023-01-29T07:27:01;101650.41;;;2.20;100.00
40612;BME280;26317;44.894;20.286;2023-01-29T07:29:31;101664.31;;;2.08;100.00
40612;BME280;26317;44.894;20.286;2023-01-29T07:32:04;101661.22;;;2.04;100.00
40612;BME280;26317;44.894;20.286;2023-01-29T07:34:35;101639.34;;;1.96;100.00
40612;BME280;26317;44.894;20.286;2023-01-29T07:37:05;101676.16;;;2.12;100.00
40612;BME280;26317;44.894;20.286;2023-01-29T07:39:38;101669.78;;;2.06;100.00
40612;BME280;26317;44.894;20.286;2023-01-29T07:42:08;101658.75;;;2.03;100.00
40612;BME280;26317;44.894;20.286;2023-01-29T07:44:39;101671.88;;;2.11;100.00
40612;BME280;26317;44.894;20.286;2023-01-29T07:47:09;101671.69;;;2.12;100.00
40612;BME280;26317;44.894;20.286;2023-01-29T07:49:42;101667.09;;;2.21;100.00
40612;BME280;26317;44.894;20.286;2023-01-29T07:52:12;101673.94;;;2.15;100.00
40612;BME280;26317;44.894;20.286;2023-01-29T07:54:45;101646.53;;;2.02;100.00
40612;BME280;26317;44.894;20.286;2023-01-29T07:57:15;101671.56;;;2.20;100.00
40612;BME280;26317;44.894;20.286;2023-01-29T07:59:45;101679.94;;;2.24;100.00
40612;BME280;26317;44.894;20.286;2023-01-29T08:02:15;101663.63;;;2.20;100.00
40612;BME280;26317;44.894;20.286;2023-01-29T08:04:45;101684.69;;;2.28;100.00
40612;BME280;26317;44.894;20.286;2023-01-29T08:07:15;101686.38;;;2.36;100.00
40612;BME280;26317;44.894;20.286;2023-01-29T08:09:49;101675.78;;;2.36;100.00
40612;BME280;26317;44.894;20.286;2023-01-29T08:12:19;101680.81;;;2.31;100.00
40612;BME280;26317;44.894;20.286;2023-01-29T08:14:49;101664.91;;;2.10;99.56
40612;BME280;26317;44.894;20.286;2023-01-29T08:17:19;101684.34;;;2.17;100.00
40612;BME280;26317;44.894;20.286;2023-01-29T08:19:49;101690.13;;;2.06;100.00
40612;BME280;26317;44.894;20.286;2023-01-29T08:22:19;101676.63;;;2.01;100.00
40612;BME280;26317;44.894;20.286;2023-01-29T08:24:52;101699.97;;;2.12;100.00
40612;BME280;26317;44.894;20.286;2023-01-29T08:27:33;101661.50;;;1.95;100.00
40612;BME280;26317;44.894;20.286;2023-01-29T08:30:05;101702.69;;;2.18;100.00
40612;BME280;26317;44.894;20.286;2023-01-29T08:32:36;101707.25;;;2.24;100.00
40612;BME280;26317;44.894;20.286;2023-01-29T08:35:07;101703.63;;;2.11;99.76
40612;BME280;26317;44.894;20.286;2023-01-29T08:37:37;101688.28;;;2.06;99.72
40612;BME280;26317;44.894;20.286;2023-01-29T08:40:11;101677.88;;;2.05;99.91
40612;BME280;26317;44.894;20.286;2023-01-29T08:42:41;101709.31;;;2.29;100.00
40612;BME280;26317;44.894;20.286;2023-01-29T08:45:11;101716.06;;;2.31;100.00
40612;BME280;26317;44.894;20.286;2023-01-29T08:47:44;101713.69;;;2.37;98.68
40612;BME280;26317;44.894;20.286;2023-01-29T08:50:15;101726.66;;;2.31;97.67
40612;BME280;26317;44.894;20.286;2023-01-29T08:52:46;101720.47;;;2.24;98.10
40612;BME280;26317;44.894;20.286;2023-01-29T08:55:19;101720.53;;;2.31;98.39
40612;BME280;26317;44.894;20.286;2023-01-29T08:57:49;101713.69;;;2.22;98.67
40612;BME280;26317;44.894;20.286;2023-01-29T09:00:20;101719.16;;;2.35;98.72
40612;BME280;26317;44.894;20.286;2023-01-29T09:02:50;101714.84;;;2.34;98.57
40612;BME280;26317;44.894;20.286;2023-01-29T09:05:21;101714.13;;;2.40;97.86
40612;BME280;26317;44.894;20.286;2023-01-29T09:07:51;101708.00;;;2.40;97.87
40612;BME280;26317;44.894;20.286;2023-01-29T09:10:24;101714.78;;;2.27;98.05
40612;BME280;26317;44.894;20.286;2023-01-29T09:12:55;101702.66;;;2.33;98.83
40612;BME280;26317;44.894;20.286;2023-01-29T09:15:25;101693.88;;;2.33;97.19
40612;BME280;26317;44.894;20.286;2023-01-29T09:17:55;101713.69;;;2.37;96.91
40612;BME280;26317;44.894;20.286;2023-01-29T09:20:25;101709.00;;;2.39;97.13
40612;BME280;26317;44.894;20.286;2023-01-29T09:22:55;101665.88;;;2.23;96.33
40612;BME280;26317;44.894;20.286;2023-01-29T09:25:28;101698.72;;;2.29;95.26
40612;BME280;26317;44.894;20.286;2023-01-29T09:27:58;101714.19;;;2.11;95.99
40612;BME280;26317;44.894;20.286;2023-01-29T09:30:28;101696.22;;;2.06;95.59
40612;BME280;26317;44.894;20.286;2023-01-29T09:33:00;101710.81;;;2.17;95.40
40612;BME280;26317;44.894;20.286;2023-01-29T09:35:34;101709.31;;;2.29;96.12
40612;BME280;26317;44.894;20.286;2023-01-29T09:38:04;101714.72;;;2.42;96.71
40612;BME280;26317;44.894;20.286;2023-01-29T09:40:45;101703.56;;;2.47;94.47
40612;BME280;26317;44.894;20.286;2023-01-29T09:43:20;101684.84;;;2.27;93.97
40612;BME280;26317;44.894;20.286;2023-01-29T09:45:55;101699.44;;;2.38;94.20
40612;BME280;26317;44.894;20.286;2023-01-29T09:48:29;101700.38;;;2.51;92.74
40612;BME280;26317;44.894;20.286;2023-01-29T09:51:04;101697.50;;;2.46;92.82
40612;BME280;26317;44.894;20.286;2023-01-29T09:53:45;101694.91;;;2.53;91.88
40612;BME280;26317;44.894;20.286;2023-01-29T09:56:22;101706.03;;;2.48;91.61
40612;BME280;26317;44.894;20.286;2023-01-29T09:58:56;101706.75;;;2.57;91.05
40612;BME280;26317;44.894;20.286;2023-01-29T10:01:32;101701.28;;;2.58;89.98
40612;BME280;26317;44.894;20.286;2023-01-29T10:04:25;101664.25;;;2.22;90.64
40612;BME280;26317;44.894;20.286;2023-01-29T10:07:23;101690.91;;;2.42;89.65
40612;BME280;26317;44.894;20.286;2023-01-29T10:10:26;101689.22;;;2.56;89.91
40612;BME280;26317;44.894;20.286;2023-01-29T10:13:06;101691.84;;;2.56;88.87
40612;BME280;26317;44.894;20.286;2023-01-29T10:15:53;101632.31;;;2.24;89.08
40612;BME280;26317;44.894;20.286;2023-01-29T10:21:42;101685.00;;;2.61;89.66
40612;BME280;26317;44.894;20.286;2023-01-29T10:24:23;101676.91;;;2.69;89.70
40612;BME280;26317;44.894;20.286;2023-01-29T10:26:55;101672.13;;;2.80;89.56
40612;BME280;26317;44.894;20.286;2023-01-29T10:29:28;101676.03;;;2.84;88.17
40612;BME280;26317;44.894;20.286;2023-01-29T10:32:01;101676.34;;;2.74;86.98
40612;BME280;26317;44.894;20.286;2023-01-29T10:34:37;101673.69;;;2.74;87.30
40612;BME280;26317;44.894;20.286;2023-01-29T10:37:14;101676.59;;;2.79;89.21
40612;BME280;26317;44.894;20.286;2023-01-29T10:39:45;101667.56;;;2.73;87.36
40612;BME280;26317;44.894;20.286;2023-01-29T10:42:27;101660.19;;;2.69;88.11
40612;BME280;26317;44.894;20.286;2023-01-29T10:45:12;101670.09;;;2.82;88.27
40612;BME280;26317;44.894;20.286;2023-01-29T10:48:00;101657.81;;;2.74;88.76
40612;BME280;26317;44.894;20.286;2023-01-29T10:50:43;101663.34;;;2.79;86.42
40612;BME280;26317;44.894;20.286;2023-01-29T10:53:28;101665.84;;;2.87;86.93
40612;BME280;26317;44.894;20.286;2023-01-29T10:56:11;101637.91;;;2.85;86.07
40612;BME280;26317;44.894;20.286;2023-01-29T10:58:50;101651.47;;;2.96;85.65
40612;BME280;26317;44.894;20.286;2023-01-29T11:01:25;101653.91;;;2.98;84.30
40612;BME280;26317;44.894;20.286;2023-01-29T11:03:57;101649.03;;;3.01;84.67
40612;BME280;26317;44.894;20.286;2023-01-29T11:06:31;101650.25;;;2.99;85.76
40612;BME280;26317;44.894;20.286;2023-01-29T11:09:06;101642.91;;;3.01;85.83
40612;BME280;26317;44.894;20.286;2023-01-29T11:11:40;101635.88;;;2.87;86.85
40612;BME280;26317;44.894;20.286;2023-01-29T11:14:17;101638.50;;;3.14;86.89
40612;BME280;26317;44.894;20.286;2023-01-29T11:16:53;101617.38;;;2.93;86.85
40612;BME280;26317;44.894;20.286;2023-01-29T11:19:36;101648.44;;;3.06;86.97
40612;BME280;26317;44.894;20.286;2023-01-29T11:22:12;101650.72;;;3.09;86.21
40612;BME280;26317;44.894;20.286;2023-01-29T11:24:43;101626.78;;;2.96;85.88
40612;BME280;26317;44.894;20.286;2023-01-29T11:27:14;101644.78;;;3.07;85.64
40612;BME280;26317;44.894;20.286;2023-01-29T11:29:49;101638.91;;;3.11;85.51
40612;BME280;26317;44.894;20.286;2023-01-29T11:32:28;101644.25;;;3.18;85.40
40612;BME280;26317;44.894;20.286;2023-01-29T11:35:01;101638.91;;;3.11;85.63
40612;BME280;26317;44.894;20.286;2023-01-29T11:37:34;101645.50;;;3.22;86.30
40612;BME280;26317;44.894;20.286;2023-01-29T11:40:33;101644.97;;;3.05;86.67
40612;BME280;26317;44.894;20.286;2023-01-29T11:45:58;101644.03;;;3.13;86.78
40612;BME280;26317;44.894;20.286;2023-01-29T11:48:39;101612.13;;;3.00;86.06
40612;BME280;26317;44.894;20.286;2023-01-29T11:51:18;101648.84;;;3.03;86.46
40612;BME280;26317;44.894;20.286;2023-01-29T11:53:52;101654.81;;;3.11;86.02
40612;BME280;26317;44.894;20.286;2023-01-29T11:56:28;101617.97;;;2.89;86.15
40612;BME280;26317;44.894;20.286;2023-01-29T11:58:59;101646.59;;;3.00;87.22
40612;BME280;26317;44.894;20.286;2023-01-29T12:01:33;101643.72;;;3.01;86.47
40612;BME280;26317;44.894;20.286;2023-01-29T12:04:17;101642.53;;;3.04;86.04
40612;BME280;26317;44.894;20.286;2023-01-29T12:06:49;101641.97;;;3.08;86.15
40612;BME280;26317;44.894;20.286;2023-01-29T12:09:23;101641.59;;;3.18;85.70
40612;BME280;26317;44.894;20.286;2023-01-29T12:12:16;101646.03;;;3.11;85.62
40612;BME280;26317;44.894;20.286;2023-01-29T12:15:02;101642.56;;;3.10;86.27
40612;BME280;26317;44.894;20.286;2023-01-29T12:17:36;101625.47;;;3.13;86.07
40612;BME280;26317;44.894;20.286;2023-01-29T12:20:13;101645.03;;;3.12;85.50
40612;BME280;26317;44.894;20.286;2023-01-29T12:22:49;101637.03;;;3.05;86.58
40612;BME280;26317;44.894;20.286;2023-01-29T12:25:23;101630.78;;;3.13;86.16
40612;BME280;26317;44.894;20.286;2023-01-29T12:28:04;101638.13;;;3.17;85.63
40612;BME280;26317;44.894;20.286;2023-01-29T12:30:43;101642.63;;;3.17;85.11
40612;BME280;26317;44.894;20.286;2023-01-29T12:33:23;101646.81;;;3.05;86.55
40612;BME280;26317;44.894;20.286;2023-01-29T12:36:04;101634.44;;;3.12;86.29
40612;BME280;26317;44.894;20.286;2023-01-29T12:38:38;101628.13;;;3.13;85.65
40612;BME280;26317;44.894;20.286;2023-01-29T12:41:23;101634.69;;;3.17;86.19
40612;BME280;26317;44.894;20.286;2023-01-29T12:44:01;101638.56;;;3.21;85.66
40612;BME280;26317;44.894;20.286;2023-01-29T12:46:36;101585.94;;;2.84;85.59
40612;BME280;26317;44.894;20.286;2023-01-29T12:49:14;101629.53;;;3.09;87.36
40612;BME280;26317;44.894;20.286;2023-01-29T12:51:52;101640.59;;;3.19;86.48
40612;BME280;26317;44.894;20.286;2023-01-29T12:54:34;101637.50;;;3.15;85.96
40612;BME280;26317;44.894;20.286;2023-01-29T12:57:12;101640.81;;;3.24;85.87
40612;BME280;26317;44.894;20.286;2023-01-29T12:59:48;101637.78;;;3.27;85.00
40612;BME280;26317;44.894;20.286;2023-01-29T13:02:30;101636.75;;;3.28;85.11
40612;BME280;26317;44.894;20.286;2023-01-29T13:05:04;101637.59;;;3.35;84.91
40612;BME280;26317;44.894;20.286;2023-01-29T13:07:45;101646.72;;;3.26;84.66
40612;BME280;26317;44.894;20.286;2023-01-29T13:10:19;101641.22;;;3.21;84.85
40612;BME280;26317;44.894;20.286;2023-01-29T13:12:57;101644.97;;;3.05;85.39
40612;BME280;26317;44.894;20.286;2023-01-29T13:15:33;101635.59;;;3.03;87.02
40612;BME280;26317;44.894;20.286;2023-01-29T13:18:32;101638.34;;;3.16;86.94
40612;BME280;26317;44.894;20.286;2023-01-29T13:21:05;101641.00;;;3.22;85.88
40612;BME280;26317;44.894;20.286;2023-01-29T13:23:45;101632.22;;;3.22;86.66
40612;BME280;26317;44.894;20.286;2023-01-29T13:26:17;101607.28;;;3.10;86.30
40612;BME280;26317;44.894;20.286;2023-01-29T13:28:48;101622.22;;;3.17;86.58
40612;BME280;26317;44.894;20.286;2023-01-29T13:31:26;101628.84;;;3.35;85.86